sensor_id;sensor_type;location;lat;lon;timestamp;P1;durP1;ratioP1;P2;durP2;ratioP2
2720;SDS011;1368;49.484;11.112;2022-12-18T00:02:14;64.70;;;29.30;;
2720;SDS011;1368;49.484;11.112;2022-12-18T00:04:39;67.10;;;30.47;;
2720;SDS011;1368;49.484;11.112;2022-12-18T00:07:05;57.73;;;28.47;;
2720;SDS011;1368;49.484;11.112;2022-12-18T00:09:31;63.37;;;28.67;;
2720;SDS011;1368;49.484;11.112;2022-12-18T00:11:56;59.03;;;29.67;;
2720;SDS011;1368;49.484;11.112;2022-12-18T00:14:22;66.23;;;30.60;;
2720;SDS011;1368;49.484;11.112;2022-12-18T00:16:47;63.93;;;30.00;;
2720;SDS011;1368;49.484;11.112;2022-12-18T00:19:13;57.03;;;27.40;;
2720;SDS011;1368;49.484;11.112;2022-12-18T00:21:40;65.13;;;31.00;;
2720;SDS011;1368;49.484;11.112;2022-12-18T00:24:06;65.25;;;28.38;;
2720;SDS011;1368;49.484;11.112;2022-12-18T00:26:33;66.85;;;29.27;;
2720;SDS011;1368;49.484;11.112;2022-12-18T00:29:02;65.72;;;30.67;;
2720;SDS011;1368;49.484;11.112;2022-12-18T00:31:30;55.67;;;27.88;;
2720;SDS011;1368;49.484;11.112;2022-12-18T00:33:56;62.38;;;27.42;;
2720;SDS011;1368;49.484;11.112;2022-12-18T00:36:23;67.50;;;29.10;;
2720;SDS011;1368;49.484;11.112;2022-12-18T00:38:51;69.78;;;29.55;;
2720;SDS011;1368;49.484;11.112;2022-12-18T00:41:18;54.42;;;25.95;;
2720;SDS011;1368;49.484;11.112;2022-12-18T00:44:03;55.65;;;25.65;;
2720;SDS011;1368;49.484;11.112;2022-12-18T00:46:30;54.20;;;25.83;;
2720;SDS011;1368;49.484;11.112;2022-12-18T00:48:56;60.30;;;27.47;;
2720;SDS011;1368;49.484;11.112;2022-12-18T00:51:22;45.23;;;27.53;;
2720;SDS011;1368;49.484;11.112;2022-12-18T00:53:48;58.03;;;27.60;;
2720;SDS011;1368;49.484;11.112;2022-12-18T00:56:13;72.33;;;30.97;;
2720;SDS011;1368;49.484;11.112;2022-12-18T00:58:39;77.27;;;33.33;;
2720;SDS011;1368;49.484;11.112;2022-12-18T01:01:05;57.27;;;24.97;;
2720;SDS011;1368;49.484;11.112;2022-12-18T01:03:31;54.05;;;26.33;;
2720;SDS011;1368;49.484;11.112;2022-12-18T01:05:56;62.97;;;27.47;;
2720;SDS011;1368;49.484;11.112;2022-12-18T01:08:22;66.53;;;29.00;;
2720;SDS011;1368;49.484;11.112;2022-12-18T01:10:48;55.33;;;23.73;;
2720;SDS011;1368;49.484;11.112;2022-12-18T01:13:13;48.47;;;25.30;;
2720;SDS011;1368;49.484;11.112;2022-12-18T01:15:39;52.20;;;23.90;;
2720;SDS011;1368;49.484;11.112;2022-12-18T01:18:05;53.60;;;24.63;;
2720;SDS011;1368;49.484;11.112;2022-12-18T01:20:31;50.25;;;25.33;;
2720;SDS011;1368;49.484;11.112;2022-12-18T01:22:57;56.63;;;23.40;;
2720;SDS011;1368;49.484;11.112;2022-12-18T01:25:23;61.23;;;23.40;;
2720;SDS011;1368;49.484;11.112;2022-12-18T01:27:48;47.80;;;24.07;;
2720;SDS011;1368;49.484;11.112;2022-12-18T01:30:14;47.27;;;23.17;;
2720;SDS011;1368;49.484;11.112;2022-12-18T01:32:39;45.47;;;24.13;;
2720;SDS011;1368;49.484;11.112;2022-12-18T01:35:05;57.23;;;22.73;;
2720;SDS011;1368;49.484;11.112;2022-12-18T01:37:31;55.67;;;22.73;;
2720;SDS011;1368;49.484;11.112;2022-12-18T01:39:57;40.00;;;22.10;;
2720;SDS011;1368;49.484;11.112;2022-12-18T01:42:23;46.03;;;24.33;;
2720;SDS011;1368;49.484;11.112;2022-12-18T01:45:01;49.67;;;23.70;;
2720;SDS011;1368;49.484;11.112;2022-12-18T01:47:40;44.42;;;23.63;;
2720;SDS011;1368;49.484;11.112;2022-12-18T01:50:19;52.45;;;24.52;;
2720;SDS011;1368;49.484;11.112;2022-12-18T01:55:46;44.08;;;22.40;;
2720;SDS011;1368;49.484;11.112;2022-12-18T01:58:17;43.92;;;23.48;;
2720;SDS011;1368;49.484;11.112;2022-12-18T02:00:44;50.47;;;24.25;;
2720;SDS011;1368;49.484;11.112;2022-12-18T02:03:09;48.33;;;24.60;;
2720;SDS011;1368;49.484;11.112;2022-12-18T02:05:46;43.87;;;24.03;;
2720;SDS011;1368;49.484;11.112;2022-12-18T02:08:24;45.33;;;21.23;;
2720;SDS011;1368;49.484;11.112;2022-12-18T02:13:54;57.67;;;24.23;;
2720;SDS011;1368;49.484;11.112;2022-12-18T02:16:51;39.28;;;22.80;;
2720;SDS011;1368;49.484;11.112;2022-12-18T02:19:36;52.60;;;24.15;;
2720;SDS011;1368;49.484;11.112;2022-12-18T02:22:43;61.58;;;24.88;;
2720;SDS011;1368;49.484;11.112;2022-12-18T02:25:38;52.72;;;24.10;;
2720;SDS011;1368;49.484;11.112;2022-12-18T02:28:25;52.53;;;23.52;;
2720;SDS011;1368;49.484;11.112;2022-12-18T02:30:53;46.00;;;23.17;;
2720;SDS011;1368;49.484;11.112;2022-12-18T02:33:24;64.85;;;25.40;;
2720;SDS011;1368;49.484;11.112;2022-12-18T02:35:51;48.75;;;23.00;;
2720;SDS011;1368;49.484;11.112;2022-12-18T02:38:19;54.03;;;24.20;;
2720;SDS011;1368;49.484;11.112;2022-12-18T02:40:45;50.40;;;23.57;;
2720;SDS011;1368;49.484;11.112;2022-12-18T02:43:13;53.72;;;24.50;;
2720;SDS011;1368;49.484;11.112;2022-12-18T02:45:52;51.15;;;21.50;;
2720;SDS011;1368;49.484;11.112;2022-12-18T02:48:25;44.72;;;22.48;;
2720;SDS011;1368;49.484;11.112;2022-12-18T02:53:37;53.65;;;23.88;;
2720;SDS011;1368;49.484;11.112;2022-12-18T02:56:18;50.78;;;23.48;;
2720;SDS011;1368;49.484;11.112;2022-12-18T02:59:04;51.58;;;23.95;;
2720;SDS011;1368;49.484;11.112;2022-12-18T03:01:38;49.65;;;22.67;;
2720;SDS011;1368;49.484;11.112;2022-12-18T03:04:12;50.75;;;24.65;;
2720;SDS011;1368;49.484;11.112;2022-12-18T03:07:14;55.33;;;22.13;;
2720;SDS011;1368;49.484;11.112;2022-12-18T03:09:44;52.08;;;23.63;;
2720;SDS011;1368;49.484;11.112;2022-12-18T03:12:20;52.92;;;24.42;;
2720;SDS011;1368;49.484;11.112;2022-12-18T03:14:56;48.92;;;21.25;;
2720;SDS011;1368;49.484;11.112;2022-12-18T03:17:35;52.03;;;22.38;;
2720;SDS011;1368;49.484;11.112;2022-12-18T03:20:06;41.45;;;21.10;;
2720;SDS011;1368;49.484;11.112;2022-12-18T03:22:36;43.10;;;19.10;;
2720;SDS011;1368;49.484;11.112;2022-12-18T03:25:04;52.58;;;24.65;;
2720;SDS011;1368;49.484;11.112;2022-12-18T03:27:34;44.63;;;21.30;;
2720;SDS011;1368;49.484;11.112;2022-12-18T03:30:07;46.67;;;22.13;;
2720;SDS011;1368;49.484;11.112;2022-12-18T03:32:42;55.13;;;24.23;;
2720;SDS011;1368;49.484;11.112;2022-12-18T03:35:10;48.90;;;23.42;;
2720;SDS011;1368;49.484;11.112;2022-12-18T03:37:39;43.65;;;19.08;;
2720;SDS011;1368;49.484;11.112;2022-12-18T03:40:05;47.63;;;23.60;;
2720;SDS011;1368;49.484;11.112;2022-12-18T03:45:09;51.65;;;23.25;;
2720;SDS011;1368;49.484;11.112;2022-12-18T03:48:08;49.53;;;21.83;;
2720;SDS011;1368;49.484;11.112;2022-12-18T03:53:58;53.97;;;22.38;;
2720;SDS011;1368;49.484;11.112;2022-12-18T03:56:26;51.40;;;23.15;;
2720;SDS011;1368;49.484;11.112;2022-12-18T03:58:55;54.85;;;23.85;;
2720;SDS011;1368;49.484;11.112;2022-12-18T04:01:24;59.08;;;25.65;;
2720;SDS011;1368;49.484;11.112;2022-12-18T04:03:55;47.78;;;22.23;;
2720;SDS011;1368;49.484;11.112;2022-12-18T04:06:24;58.65;;;24.55;;
2720;SDS011;1368;49.484;11.112;2022-12-18T04:08:51;40.45;;;19.10;;
2720;SDS011;1368;49.484;11.112;2022-12-18T04:11:17;56.20;;;23.37;;
2720;SDS011;1368;49.484;11.112;2022-12-18T04:13:42;60.70;;;23.47;;
2720;SDS011;1368;49.484;11.112;2022-12-18T04:16:08;54.93;;;22.67;;
2720;SDS011;1368;49.484;11.112;2022-12-18T04:18:34;49.50;;;21.93;;
2720;SDS011;1368;49.484;11.112;2022-12-18T04:21:00;54.80;;;23.27;;
2720;SDS011;1368;49.484;11.112;2022-12-18T04:23:27;56.78;;;23.80;;
2720;SDS011;1368;49.484;11.112;2022-12-18T04:25:53;61.85;;;25.90;;
2720;SDS011;1368;49.484;11.112;2022-12-18T04:28:19;60.70;;;26.83;;
2720;SDS011;1368;49.484;11.112;2022-12-18T04:30:45;55.07;;;25.27;;
2720;SDS011;1368;49.484;11.112;2022-12-18T04:33:11;57.97;;;24.20;;
2720;SDS011;1368;49.484;11.112;2022-12-18T04:35:38;64.60;;;27.85;;
2720;SDS011;1368;49.484;11.112;2022-12-18T04:38:05;53.85;;;24.58;;
2720;SDS011;1368;49.484;11.112;2022-12-18T04:40:33;66.10;;;26.38;;
2720;SDS011;1368;49.484;11.112;2022-12-18T04:43:00;64.88;;;24.73;;
2720;SDS011;1368;49.484;11.112;2022-12-18T04:45:25;45.93;;;22.50;;
2720;SDS011;1368;49.484;11.112;2022-12-18T04:47:51;52.40;;;22.03;;
2720;SDS011;1368;49.484;11.112;2022-12-18T04:50:17;57.90;;;25.20;;
2720;SDS011;1368;49.484;11.112;2022-12-18T04:52:42;61.80;;;26.30;;
2720;SDS011;1368;49.484;11.112;2022-12-18T04:55:08;53.17;;;24.40;;
2720;SDS011;1368;49.484;11.112;2022-12-18T04:57:33;63.17;;;26.00;;
2720;SDS011;1368;49.484;11.112;2022-12-18T04:59:59;62.57;;;26.33;;
2720;SDS011;1368;49.484;11.112;2022-12-18T05:02:25;54.57;;;24.63;;
2720;SDS011;1368;49.484;11.112;2022-12-18T05:04:50;62.43;;;25.03;;
2720;SDS011;1368;49.484;11.112;2022-12-18T05:07:16;68.67;;;28.27;;
2720;SDS011;1368;49.484;11.112;2022-12-18T05:09:41;57.27;;;24.20;;
2720;SDS011;1368;49.484;11.112;2022-12-18T05:12:07;49.50;;;25.13;;
2720;SDS011;1368;49.484;11.112;2022-12-18T05:14:32;54.67;;;23.77;;
2720;SDS011;1368;49.484;11.112;2022-12-18T05:16:58;60.67;;;24.87;;
2720;SDS011;1368;49.484;11.112;2022-12-18T05:19:23;55.53;;;24.67;;
2720;SDS011;1368;49.484;11.112;2022-12-18T05:21:49;56.43;;;26.30;;
2720;SDS011;1368;49.484;11.112;2022-12-18T05:24:14;48.87;;;19.43;;
2720;SDS011;1368;49.484;11.112;2022-12-18T05:26:40;54.83;;;24.40;;
2720;SDS011;1368;49.484;11.112;2022-12-18T05:29:05;60.80;;;21.80;;
2720;SDS011;1368;49.484;11.112;2022-12-18T05:31:31;67.80;;;25.73;;
2720;SDS011;1368;49.484;11.112;2022-12-18T05:33:57;61.10;;;22.47;;
2720;SDS011;1368;49.484;11.112;2022-12-18T05:36:22;59.97;;;24.10;;
2720;SDS011;1368;49.484;11.112;2022-12-18T05:38:48;59.00;;;25.47;;
2720;SDS011;1368;49.484;11.112;2022-12-18T05:41:14;65.27;;;23.43;;
2720;SDS011;1368;49.484;11.112;2022-12-18T05:43:39;56.30;;;22.60;;
2720;SDS011;1368;49.484;11.112;2022-12-18T05:46:06;56.37;;;25.23;;
2720;SDS011;1368;49.484;11.112;2022-12-18T05:48:34;55.10;;;26.30;;
2720;SDS011;1368;49.484;11.112;2022-12-18T05:51:03;54.87;;;24.73;;
2720;SDS011;1368;49.484;11.112;2022-12-18T05:53:31;45.72;;;18.55;;
2720;SDS011;1368;49.484;11.112;2022-12-18T05:55:59;60.00;;;23.45;;
2720;SDS011;1368;49.484;11.112;2022-12-18T05:58:26;56.22;;;23.42;;
2720;SDS011;1368;49.484;11.112;2022-12-18T06:00:52;69.57;;;24.97;;
2720;SDS011;1368;49.484;11.112;2022-12-18T06:03:17;52.93;;;24.13;;
2720;SDS011;1368;49.484;11.112;2022-12-18T06:05:43;48.63;;;20.77;;
2720;SDS011;1368;49.484;11.112;2022-12-18T06:08:10;41.15;;;20.23;;
2720;SDS011;1368;49.484;11.112;2022-12-18T06:10:36;55.70;;;21.55;;
2720;SDS011;1368;49.484;11.112;2022-12-18T06:13:02;47.00;;;22.83;;
2720;SDS011;1368;49.484;11.112;2022-12-18T06:15:28;67.90;;;24.07;;
2720;SDS011;1368;49.484;11.112;2022-12-18T06:17:53;46.73;;;18.10;;
2720;SDS011;1368;49.484;11.112;2022-12-18T06:20:19;66.00;;;24.73;;
2720;SDS011;1368;49.484;11.112;2022-12-18T06:22:44;64.23;;;25.00;;
2720;SDS011;1368;49.484;11.112;2022-12-18T06:25:10;53.90;;;23.47;;
2720;SDS011;1368;49.484;11.112;2022-12-18T06:27:36;47.67;;;19.23;;
2720;SDS011;1368;49.484;11.112;2022-12-18T06:30:02;71.67;;;24.93;;
2720;SDS011;1368;49.484;11.112;2022-12-18T06:32:29;61.42;;;24.35;;
2720;SDS011;1368;49.484;11.112;2022-12-18T06:34:55;58.03;;;24.53;;
2720;SDS011;1368;49.484;11.112;2022-12-18T06:37:21;62.53;;;25.03;;
2720;SDS011;1368;49.484;11.112;2022-12-18T06:39:50;50.10;;;20.52;;
2720;SDS011;1368;49.484;11.112;2022-12-18T06:42:16;61.03;;;21.83;;
2720;SDS011;1368;49.484;11.112;2022-12-18T06:44:42;57.00;;;22.17;;
2720;SDS011;1368;49.484;11.112;2022-12-18T06:47:08;59.40;;;24.87;;
2720;SDS011;1368;49.484;11.112;2022-12-18T06:49:34;61.33;;;23.73;;
2720;SDS011;1368;49.484;11.112;2022-12-18T06:51:59;49.70;;;22.13;;
2720;SDS011;1368;49.484;11.112;2022-12-18T06:54:25;49.47;;;21.53;;
2720;SDS011;1368;49.484;11.112;2022-12-18T06:56:50;57.60;;;21.97;;
2720;SDS011;1368;49.484;11.112;2022-12-18T06:59:16;53.60;;;22.67;;
2720;SDS011;1368;49.484;11.112;2022-12-18T07:01:41;61.57;;;23.33;;
2720;SDS011;1368;49.484;11.112;2022-12-18T07:04:07;62.60;;;23.63;;
2720;SDS011;1368;49.484;11.112;2022-12-18T07:06:32;52.20;;;20.37;;
2720;SDS011;1368;49.484;11.112;2022-12-18T07:08:58;46.07;;;21.20;;
2720;SDS011;1368;49.484;11.112;2022-12-18T07:11:23;50.83;;;18.30;;
2720;SDS011;1368;49.484;11.112;2022-12-18T07:13:49;53.97;;;21.07;;
2720;SDS011;1368;49.484;11.112;2022-12-18T07:16:16;59.80;;;24.37;;
2720;SDS011;1368;49.484;11.112;2022-12-18T07:18:43;50.28;;;20.40;;
2720;SDS011;1368;49.484;11.112;2022-12-18T07:21:10;52.17;;;21.57;;
2720;SDS011;1368;49.484;11.112;2022-12-18T07:23:38;62.50;;;24.77;;
2720;SDS011;1368;49.484;11.112;2022-12-18T07:26:04;45.20;;;22.07;;
2720;SDS011;1368;49.484;11.112;2022-12-18T07:28:31;57.88;;;22.75;;
2720;SDS011;1368;49.484;11.112;2022-12-18T07:30:58;48.53;;;19.27;;
2720;SDS011;1368;49.484;11.112;2022-12-18T07:33:28;55.67;;;23.48;;
2720;SDS011;1368;49.484;11.112;2022-12-18T07:35:53;51.30;;;20.33;;
2720;SDS011;1368;49.484;11.112;2022-12-18T07:38:19;54.43;;;22.03;;
2720;SDS011;1368;49.484;11.112;2022-12-18T07:40:44;52.20;;;22.23;;
2720;SDS011;1368;49.484;11.112;2022-12-18T07:43:10;73.93;;;25.50;;
2720;SDS011;1368;49.484;11.112;2022-12-18T07:45:35;58.90;;;22.17;;
2720;SDS011;1368;49.484;11.112;2022-12-18T07:48:01;63.23;;;24.07;;
2720;SDS011;1368;49.484;11.112;2022-12-18T07:50:26;51.70;;;23.47;;
2720;SDS011;1368;49.484;11.112;2022-12-18T07:52:52;51.17;;;23.07;;
2720;SDS011;1368;49.484;11.112;2022-12-18T07:55:17;55.50;;;21.70;;
2720;SDS011;1368;49.484;11.112;2022-12-18T07:57:43;55.87;;;24.33;;
2720;SDS011;1368;49.484;11.112;2022-12-18T08:00:09;50.63;;;22.50;;
2720;SDS011;1368;49.484;11.112;2022-12-18T08:02:35;50.13;;;19.80;;
2720;SDS011;1368;49.484;11.112;2022-12-18T08:05:00;57.87;;;25.20;;
2720;SDS011;1368;49.484;11.112;2022-12-18T08:07:26;55.83;;;20.90;;
2720;SDS011;1368;49.484;11.112;2022-12-18T08:09:51;49.10;;;20.23;;
2720;SDS011;1368;49.484;11.112;2022-12-18T08:12:17;52.93;;;21.23;;
2720;SDS011;1368;49.484;11.112;2022-12-18T08:14:43;50.63;;;21.40;;
2720;SDS011;1368;49.484;11.112;2022-12-18T08:17:08;53.10;;;22.07;;
2720;SDS011;1368;49.484;11.112;2022-12-18T08:19:34;54.70;;;23.90;;
2720;SDS011;1368;49.484;11.112;2022-12-18T08:21:59;50.60;;;23.00;;
2720;SDS011;1368;49.484;11.112;2022-12-18T08:24:25;55.40;;;23.17;;
2720;SDS011;1368;49.484;11.112;2022-12-18T08:26:50;52.07;;;20.73;;
2720;SDS011;1368;49.484;11.112;2022-12-18T08:29:16;52.80;;;23.07;;
2720;SDS011;1368;49.484;11.112;2022-12-18T08:31:41;60.63;;;24.93;;
2720;SDS011;1368;49.484;11.112;2022-12-18T08:34:07;51.80;;;22.10;;
2720;SDS011;1368;49.484;11.112;2022-12-18T08:36:33;52.37;;;22.90;;
2720;SDS011;1368;49.484;11.112;2022-12-18T08:38:58;56.33;;;24.23;;
2720;SDS011;1368;49.484;11.112;2022-12-18T08:41:24;65.57;;;23.80;;
2720;SDS011;1368;49.484;11.112;2022-12-18T08:43:49;53.27;;;23.07;;
2720;SDS011;1368;49.484;11.112;2022-12-18T08:46:35;48.53;;;21.70;;
2720;SDS011;1368;49.484;11.112;2022-12-18T08:49:05;57.65;;;21.98;;
2720;SDS011;1368;49.484;11.112;2022-12-18T08:51:32;52.38;;;21.02;;
2720;SDS011;1368;49.484;11.112;2022-12-18T08:53:57;46.07;;;22.60;;
2720;SDS011;1368;49.484;11.112;2022-12-18T08:56:23;47.80;;;20.07;;
2720;SDS011;1368;49.484;11.112;2022-12-18T08:58:51;52.43;;;22.77;;
2720;SDS011;1368;49.484;11.112;2022-12-18T09:01:18;50.00;;;22.90;;
2720;SDS011;1368;49.484;11.112;2022-12-18T09:03:44;48.28;;;21.25;;
2720;SDS011;1368;49.484;11.112;2022-12-18T09:06:12;52.80;;;23.37;;
2720;SDS011;1368;49.484;11.112;2022-12-18T09:08:39;50.85;;;22.30;;
2720;SDS011;1368;49.484;11.112;2022-12-18T09:11:09;49.40;;;21.97;;
2720;SDS011;1368;49.484;11.112;2022-12-18T09:13:40;45.60;;;21.65;;
2720;SDS011;1368;49.484;11.112;2022-12-18T09:16:05;50.27;;;21.60;;
2720;SDS011;1368;49.484;11.112;2022-12-18T09:18:31;53.53;;;21.70;;
2720;SDS011;1368;49.484;11.112;2022-12-18T09:20:57;49.63;;;22.77;;
2720;SDS011;1368;49.484;11.112;2022-12-18T09:23:22;47.67;;;22.27;;
2720;SDS011;1368;49.484;11.112;2022-12-18T09:25:48;42.90;;;20.83;;
2720;SDS011;1368;49.484;11.112;2022-12-18T09:28:14;42.73;;;20.83;;
2720;SDS011;1368;49.484;11.112;2022-12-18T09:30:43;47.70;;;22.57;;
2720;SDS011;1368;49.484;11.112;2022-12-18T09:33:13;47.70;;;20.90;;
2720;SDS011;1368;49.484;11.112;2022-12-18T09:35:40;45.92;;;19.92;;
2720;SDS011;1368;49.484;11.112;2022-12-18T09:38:06;41.05;;;18.75;;
2720;SDS011;1368;49.484;11.112;2022-12-18T09:40:40;41.80;;;20.60;;
2720;SDS011;1368;49.484;11.112;2022-12-18T09:43:09;45.00;;;21.17;;
2720;SDS011;1368;49.484;11.112;2022-12-18T09:45:42;39.72;;;18.85;;
2720;SDS011;1368;49.484;11.112;2022-12-18T09:48:23;49.05;;;20.02;;
2720;SDS011;1368;49.484;11.112;2022-12-18T09:51:13;44.72;;;21.20;;
2720;SDS011;1368;49.484;11.112;2022-12-18T09:53:42;39.30;;;20.10;;
2720;SDS011;1368;49.484;11.112;2022-12-18T09:56:14;45.90;;;19.80;;
2720;SDS011;1368;49.484;11.112;2022-12-18T09:58:47;46.00;;;20.80;;
2720;SDS011;1368;49.484;11.112;2022-12-18T10:01:26;45.95;;;18.88;;
2720;SDS011;1368;49.484;11.112;2022-12-18T10:03:53;36.88;;;19.08;;
2720;SDS011;1368;49.484;11.112;2022-12-18T10:06:24;48.35;;;22.92;;
2720;SDS011;1368;49.484;11.112;2022-12-18T10:11:54;44.37;;;19.53;;
2720;SDS011;1368;49.484;11.112;2022-12-18T10:14:37;41.30;;;18.60;;
2720;SDS011;1368;49.484;11.112;2022-12-18T10:17:33;41.33;;;19.80;;
2720;SDS011;1368;49.484;11.112;2022-12-18T10:20:24;39.90;;;17.80;;
2720;SDS011;1368;49.484;11.112;2022-12-18T10:22:57;48.75;;;20.00;;
2720;SDS011;1368;49.484;11.112;2022-12-18T10:28:18;39.92;;;18.40;;
2720;SDS011;1368;49.484;11.112;2022-12-18T10:30:45;40.72;;;19.15;;
2720;SDS011;1368;49.484;11.112;2022-12-18T10:33:16;43.03;;;20.50;;
2720;SDS011;1368;49.484;11.112;2022-12-18T10:35:44;36.50;;;20.50;;
2720;SDS011;1368;49.484;11.112;2022-12-18T10:40:54;41.73;;;20.57;;
2720;SDS011;1368;49.484;11.112;2022-12-18T10:43:21;37.03;;;14.70;;
2720;SDS011;1368;49.484;11.112;2022-12-18T10:46:02;40.65;;;20.35;;
2720;SDS011;1368;49.484;11.112;2022-12-18T10:48:55;40.03;;;20.45;;
2720;SDS011;1368;49.484;11.112;2022-12-18T10:53:52;43.08;;;19.98;;
2720;SDS011;1368;49.484;11.112;2022-12-18T10:56:20;37.70;;;19.52;;
2720;SDS011;1368;49.484;11.112;2022-12-18T10:58:55;37.90;;;20.50;;
2720;SDS011;1368;49.484;11.112;2022-12-18T11:01:22;40.33;;;20.20;;
2720;SDS011;1368;49.484;11.112;2022-12-18T11:06:21;30.37;;;16.93;;
2720;SDS011;1368;49.484;11.112;2022-12-18T11:11:50;34.30;;;17.27;;
2720;SDS011;1368;49.484;11.112;2022-12-18T11:14:20;30.60;;;15.67;;
2720;SDS011;1368;49.484;11.112;2022-12-18T11:16:49;35.33;;;17.80;;
2720;SDS011;1368;49.484;11.112;2022-12-18T11:19:20;39.38;;;17.60;;
2720;SDS011;1368;49.484;11.112;2022-12-18T11:21:51;37.20;;;19.63;;
2720;SDS011;1368;49.484;11.112;2022-12-18T11:24:19;35.97;;;17.53;;
2720;SDS011;1368;49.484;11.112;2022-12-18T11:26:49;36.80;;;18.57;;
2720;SDS011;1368;49.484;11.112;2022-12-18T11:29:16;33.90;;;18.07;;
2720;SDS011;1368;49.484;11.112;2022-12-18T11:31:43;40.77;;;19.60;;
2720;SDS011;1368;49.484;11.112;2022-12-18T11:34:12;35.03;;;18.43;;
2720;SDS011;1368;49.484;11.112;2022-12-18T11:36:52;35.23;;;18.87;;
2720;SDS011;1368;49.484;11.112;2022-12-18T11:39:20;37.60;;;18.80;;
2720;SDS011;1368;49.484;11.112;2022-12-18T11:41:59;41.33;;;20.92;;
2720;SDS011;1368;49.484;11.112;2022-12-18T11:44:36;38.50;;;18.40;;
2720;SDS011;1368;49.484;11.112;2022-12-18T11:49:50;41.73;;;18.70;;
2720;SDS011;1368;49.484;11.112;2022-12-18T11:52:21;41.30;;;22.07;;
2720;SDS011;1368;49.484;11.112;2022-12-18T11:54:51;42.15;;;21.83;;
2720;SDS011;1368;49.484;11.112;2022-12-18T12:00:19;45.33;;;19.27;;
2720;SDS011;1368;49.484;11.112;2022-12-18T12:05:48;41.57;;;20.20;;
2720;SDS011;1368;49.484;11.112;2022-12-18T12:14:27;40.23;;;20.53;;
2720;SDS011;1368;49.484;11.112;2022-12-18T12:20:08;39.90;;;20.67;;
2720;SDS011;1368;49.484;11.112;2022-12-18T12:26:01;47.00;;;21.13;;
2720;SDS011;1368;49.484;11.112;2022-12-18T12:31:43;45.95;;;20.58;;
2720;SDS011;1368;49.484;11.112;2022-12-18T12:34:46;40.30;;;20.27;;
2720;SDS011;1368;49.484;11.112;2022-12-18T12:39:49;37.07;;;20.00;;
2720;SDS011;1368;49.484;11.112;2022-12-18T12:48:56;45.00;;;21.20;;
2720;SDS011;1368;49.484;11.112;2022-12-18T12:51:14;41.77;;;19.90;;
2720;SDS011;1368;49.484;11.112;2022-12-18T12:53:46;46.53;;;23.70;;
2720;SDS011;1368;49.484;11.112;2022-12-18T12:56:14;40.50;;;20.33;;
2720;SDS011;1368;49.484;11.112;2022-12-18T13:04:24;45.07;;;21.30;;
2720;SDS011;1368;49.484;11.112;2022-12-18T13:12:54;39.40;;;20.70;;
2720;SDS011;1368;49.484;11.112;2022-12-18T13:15:22;41.80;;;19.67;;
2720;SDS011;1368;49.484;11.112;2022-12-18T13:18:23;38.70;;;19.67;;
2720;SDS011;1368;49.484;11.112;2022-12-18T13:20:42;32.23;;;17.50;;
2720;SDS011;1368;49.484;11.112;2022-12-18T13:25:45;39.40;;;19.80;;
2720;SDS011;1368;49.484;11.112;2022-12-18T13:28:14;38.53;;;20.10;;
2720;SDS011;1368;49.484;11.112;2022-12-18T13:30:42;44.47;;;20.03;;
2720;SDS011;1368;49.484;11.112;2022-12-18T13:35:51;35.90;;;18.37;;
2720;SDS011;1368;49.484;11.112;2022-12-18T13:38:32;30.73;;;15.57;;
2720;SDS011;1368;49.484;11.112;2022-12-18T13:43:43;38.92;;;18.85;;
2720;SDS011;1368;49.484;11.112;2022-12-18T13:48:57;34.90;;;17.80;;
2720;SDS011;1368;49.484;11.112;2022-12-18T13:51:29;33.70;;;17.90;;
2720;SDS011;1368;49.484;11.112;2022-12-18T13:53:58;33.23;;;19.53;;
2720;SDS011;1368;49.484;11.112;2022-12-18T13:56:27;33.88;;;17.98;;
2720;SDS011;1368;49.484;11.112;2022-12-18T13:59:11;39.03;;;19.77;;
2720;SDS011;1368;49.484;11.112;2022-12-18T14:02:14;28.20;;;16.50;;
2720;SDS011;1368;49.484;11.112;2022-12-18T14:04:44;31.63;;;16.80;;
2720;SDS011;1368;49.484;11.112;2022-12-18T14:07:12;36.37;;;18.27;;
2720;SDS011;1368;49.484;11.112;2022-12-18T14:09:41;32.00;;;16.87;;
2720;SDS011;1368;49.484;11.112;2022-12-18T14:12:16;38.53;;;17.15;;
2720;SDS011;1368;49.484;11.112;2022-12-18T14:17:58;34.13;;;18.03;;
2720;SDS011;1368;49.484;11.112;2022-12-18T14:20:34;31.60;;;15.13;;
2720;SDS011;1368;49.484;11.112;2022-12-18T14:23:00;38.67;;;19.10;;
2720;SDS011;1368;49.484;11.112;2022-12-18T14:25:30;38.23;;;17.87;;
2720;SDS011;1368;49.484;11.112;2022-12-18T14:28:12;37.65;;;17.52;;
2720;SDS011;1368;49.484;11.112;2022-12-18T14:30:43;40.67;;;18.63;;
2720;SDS011;1368;49.484;11.112;2022-12-18T14:33:11;32.27;;;14.77;;
2720;SDS011;1368;49.484;11.112;2022-12-18T14:36:01;38.37;;;20.13;;
2720;SDS011;1368;49.484;11.112;2022-12-18T14:38:31;39.47;;;19.50;;
2720;SDS011;1368;49.484;11.112;2022-12-18T14:41:02;35.60;;;17.53;;
2720;SDS011;1368;49.484;11.112;2022-12-18T14:43:36;40.73;;;20.30;;
2720;SDS011;1368;49.484;11.112;2022-12-18T14:46:04;39.47;;;20.43;;
2720;SDS011;1368;49.484;11.112;2022-12-18T14:48:49;38.27;;;19.30;;
2720;SDS011;1368;49.484;11.112;2022-12-18T14:51:16;40.53;;;19.23;;
2720;SDS011;1368;49.484;11.112;2022-12-18T14:53:44;36.80;;;18.58;;
2720;SDS011;1368;49.484;11.112;2022-12-18T14:56:25;36.80;;;18.43;;
2720;SDS011;1368;49.484;11.112;2022-12-18T15:01:33;37.27;;;17.70;;
2720;SDS011;1368;49.484;11.112;2022-12-18T15:04:01;36.30;;;16.75;;
2720;SDS011;1368;49.484;11.112;2022-12-18T15:06:33;37.15;;;18.48;;
2720;SDS011;1368;49.484;11.112;2022-12-18T15:09:05;44.43;;;19.90;;
2720;SDS011;1368;49.484;11.112;2022-12-18T15:11:47;42.03;;;17.77;;
2720;SDS011;1368;49.484;11.112;2022-12-18T15:17:41;36.93;;;17.77;;
2720;SDS011;1368;49.484;11.112;2022-12-18T15:20:00;36.73;;;18.87;;
2720;SDS011;1368;49.484;11.112;2022-12-18T15:22:33;41.93;;;19.13;;
2720;SDS011;1368;49.484;11.112;2022-12-18T15:25:01;40.07;;;19.97;;
2720;SDS011;1368;49.484;11.112;2022-12-18T15:27:45;37.40;;;18.23;;
2720;SDS011;1368;49.484;11.112;2022-12-18T15:30:16;36.47;;;19.40;;
2720;SDS011;1368;49.484;11.112;2022-12-18T15:32:43;42.20;;;20.20;;
2720;SDS011;1368;49.484;11.112;2022-12-18T15:35:22;42.05;;;18.63;;
2720;SDS011;1368;49.484;11.112;2022-12-18T15:37:50;43.55;;;21.02;;
2720;SDS011;1368;49.484;11.112;2022-12-18T15:40:21;46.05;;;22.27;;
2720;SDS011;1368;49.484;11.112;2022-12-18T15:42:50;44.70;;;20.57;;
2720;SDS011;1368;49.484;11.112;2022-12-18T15:45:37;42.87;;;20.33;;
2720;SDS011;1368;49.484;11.112;2022-12-18T15:48:08;43.40;;;22.87;;
2720;SDS011;1368;49.484;11.112;2022-12-18T15:50:48;40.47;;;19.38;;
2720;SDS011;1368;49.484;11.112;2022-12-18T15:53:18;38.97;;;20.30;;
2720;SDS011;1368;49.484;11.112;2022-12-18T15:55:44;39.70;;;20.70;;
2720;SDS011;1368;49.484;11.112;2022-12-18T15:58:28;40.83;;;19.13;;
2720;SDS011;1368;49.484;11.112;2022-12-18T16:00:53;38.37;;;21.20;;
2720;SDS011;1368;49.484;11.112;2022-12-18T16:03:23;45.27;;;20.13;;
2720;SDS011;1368;49.484;11.112;2022-12-18T16:05:48;41.43;;;21.47;;
2720;SDS011;1368;49.484;11.112;2022-12-18T16:08:14;48.67;;;23.47;;
2720;SDS011;1368;49.484;11.112;2022-12-18T16:10:39;41.53;;;19.87;;
2720;SDS011;1368;49.484;11.112;2022-12-18T16:13:06;41.47;;;21.80;;
2720;SDS011;1368;49.484;11.112;2022-12-18T16:15:35;41.60;;;21.87;;
2720;SDS011;1368;49.484;11.112;2022-12-18T16:18:00;44.83;;;21.00;;
2720;SDS011;1368;49.484;11.112;2022-12-18T16:20:26;50.53;;;24.53;;
2720;SDS011;1368;49.484;11.112;2022-12-18T16:22:51;47.50;;;22.97;;
2720;SDS011;1368;49.484;11.112;2022-12-18T16:25:26;49.57;;;23.70;;